Time;durP1;ratioP1;P1;durP2;ratioP2;P2;SDS_P1;SDS_P2;PMS_P1;PMS_P2;Temp;Humidity;BMP_temperature;BMP_pressure;BME280_temperature;BME280_humidity;BME280_pressure;Samples;Min_cycle;Max_cycle;Signal;HPM_P1;HPM_P2
2023/09/29 00:01:33;;;;;;;6.23;3.13;;;;;;;19.69;54.87;98997.16;6888783;28;20204;-87
2023/09/29 00:04:54;;;;;;;5.40;3.63;;;;;;;19.03;56.41;98986.53;6889158;28;20591;-86
2023/09/29 00:08:17;;;;;;;4.50;3.10;;;;;;;18.31;57.82;98916.72;6889361;28;20208;-86
2023/09/29 00:11:41;;;;;;;4.17;3.70;;;;;;;18.81;57.41;98986.53;6888825;28;20259;-86
2023/09/29 00:15:03;;;;;;;4.87;3.10;;;;;;;18.99;57.24;99002.59;6889578;28;20267;-85
2023/09/29 00:18:25;;;;;;;3.13;2.83;;;;;;;18.49;57.56;98921.91;6889105;28;20358;-86
2023/09/29 00:21:47;;;;;;;4.77;2.70;;;;;;;19.42;55.95;98988.97;6888598;28;20205;-86
2023/09/29 00:25:09;;;;;;;3.97;2.93;;;;;;;19.37;55.26;98988.06;6889006;28;20279;-86
2023/09/29 00:28:32;;;;;;;3.03;2.73;;;;;;;19.33;55.37;98965.88;6889453;28;20200;-86
2023/09/29 00:31:54;;;;;;;3.83;2.73;;;;;;;19.45;54.75;98969.28;6888148;28;20322;-86
2023/09/29 00:35:26;;;;;;;3.70;3.10;;;;;;;19.35;55.39;98980.09;6889310;28;20229;-86
2023/09/29 00:38:47;;;;;;;6.33;3.07;;;;;;;19.17;56.08;98982.34;6888784;28;20188;-85
2023/09/29 00:42:09;;;;;;;3.60;3.10;;;;;;;19.26;55.63;98950.75;6888805;28;20204;-86
2023/09/29 00:45:33;;;;;;;4.50;2.97;;;;;;;19.80;54.36;98971.56;6889777;28;20224;-86
2023/09/29 00:48:55;;;;;;;3.90;3.00;;;;;;;19.87;53.86;98983.91;6889676;28;20659;-85
2023/09/29 00:52:18;;;;;;;4.43;2.97;;;;;;;19.70;54.68;98971.44;6888691;28;20229;-85
2023/09/29 00:55:41;;;;;;;5.43;3.10;;;;;;;19.23;54.51;98937.59;6887777;28;20291;-86
2023/09/29 00:59:05;;;;;;;5.27;2.97;;;;;;;18.75;55.50;98881.00;6885996;28;20212;-86
2023/09/29 01:02:28;;;;;;;6.17;3.27;;;;;;;19.39;55.30;98981.25;6887659;28;20675;-86
2023/09/29 01:05:52;;;;;;;4.37;3.20;;;;;;;19.35;55.19;98968.34;6888400;28;20205;-86
2023/09/29 01:09:14;;;;;;;4.90;3.13;;;;;;;19.17;56.25;98998.75;6888513;28;20204;-86
2023/09/29 01:12:35;;;;;;;6.73;3.23;;;;;;;18.66;56.76;98953.56;6888239;28;20224;-85
2023/09/29 01:15:59;;;;;;;6.13;3.27;;;;;;;19.28;56.34;98990.41;6889067;28;20664;-85
2023/09/29 01:19:22;;;;;;;4.83;3.47;;;;;;;18.27;57.04;98893.75;6889011;28;20229;-86
2023/09/29 01:22:47;;;;;;;6.83;3.57;;;;;;;18.95;56.91;98981.50;6888176;28;20247;-86
2023/09/29 01:26:10;;;;;;;7.23;3.33;;;;;;;19.23;55.91;98976.69;6886896;28;20428;-86
2023/09/29 01:29:31;;;;;;;4.90;3.23;;;;;;;19.01;56.58;98975.88;6892402;28;20647;-86
2023/09/29 01:32:56;;;;;;;3.37;3.07;;;;;;;19.13;56.24;98975.72;6893135;28;20372;-86
2023/09/29 01:36:17;;;;;;;3.87;3.47;;;;;;;19.05;56.74;98981.66;6894340;28;20201;-85
2023/09/29 01:39:39;;;;;;;6.37;3.33;;;;;;;19.19;56.09;98983.75;6894048;28;20215;-86
2023/09/29 01:43:02;;;;;;;4.77;3.20;;;;;;;19.29;55.91;98986.59;6866582;28;20364;-86
2023/09/29 01:46:24;;;;;;;5.50;3.30;;;;;;;19.34;55.47;98994.88;6867315;28;20213;-86
2023/09/29 01:49:48;;;;;;;3.43;2.90;;;;;;;19.35;55.28;98988.31;6867135;28;20217;-86
2023/09/29 01:53:12;;;;;;;3.37;3.07;;;;;;;18.99;55.61;98969.81;6867683;28;20232;-85
2023/09/29 01:56:34;;;;;;;3.87;3.00;;;;;;;18.98;56.43;98978.28;6883736;28;20212;-86
2023/09/29 01:59:57;;;;;;;6.33;3.23;;;;;;;18.28;57.47;98939.88;6925876;28;20219;-86
2023/09/29 02:03:19;;;;;;;4.77;3.13;;;;;;;18.67;57.39;98960.66;6925193;28;20212;-87
2023/09/29 02:06:41;;;;;;;3.57;3.27;;;;;;;18.65;57.42;98981.13;6906220;28;20210;-86
2023/09/29 02:10:03;;;;;;;4.83;3.00;;;;;;;18.77;57.34;98998.22;6892845;28;20350;-85
2023/09/29 02:13:24;;;;;;;4.93;3.37;;;;;;;18.88;57.14;98986.34;6891998;28;20891;-86
2023/09/29 02:16:48;;;;;;;5.77;3.60;;;;;;;18.77;56.84;98990.88;6892678;28;20296;-86
2023/09/29 02:20:14;;;;;;;6.00;3.13;;;;;;;18.73;56.83;98989.72;6892593;28;20633;-86
2023/09/29 02:23:36;;;;;;;4.10;3.23;;;;;;;18.62;56.93;98982.44;6892150;28;20235;-85
2023/09/29 02:26:57;;;;;;;5.80;3.00;;;;;;;18.96;56.32;98989.47;6892459;28;20213;-86
2023/09/29 02:30:19;;;;;;;4.73;3.30;;;;;;;18.98;56.07;98981.03;6892872;28;20262;-85
2023/09/29 02:33:41;;;;;;;3.90;3.00;;;;;;;18.14;57.78;98978.69;6892254;28;20274;-86
2023/09/29 02:37:03;;;;;;;3.93;3.20;;;;;;;18.50;57.31;98968.06;6893221;28;20354;-85
2023/09/29 02:40:25;;;;;;;3.53;3.20;;;;;;;18.20;58.19;98970.34;6892115;28;20295;-86
2023/09/29 02:43:46;;;;;;;4.27;3.53;;;;;;;18.38;58.10;98966.53;6891649;28;20220;-86
2023/09/29 02:47:08;;;;;;;5.63;3.40;;;;;;;17.67;58.79;98917.34;6892312;28;20205;-86
2023/09/29 02:50:34;;;;;;;4.77;3.20;;;;;;;18.48;57.92;98967.50;6891948;28;20208;-85
2023/09/29 02:53:56;;;;;;;3.40;3.10;;;;;;;18.86;56.76;98963.94;6891816;28;20289;-86
2023/09/29 02:57:18;;;;;;;4.30;3.23;;;;;;;18.90;56.60;98970.50;6892146;28;20750;-86
2023/09/29 03:00:40;;;;;;;4.40;3.17;;;;;;;19.26;55.57;98958.94;6891954;28;20803;-86
2023/09/29 03:04:01;;;;;;;3.70;3.40;;;;;;;19.47;54.82;98958.94;6891058;28;20260;-86
2023/09/29 03:07:24;;;;;;;6.40;3.20;;;;;;;19.34;54.82;98959.31;6891879;28;20648;-86
2023/09/29 03:10:46;;;;;;;5.30;3.37;;;;;;;19.12;55.02;98930.34;6891594;28;20344;-86
2023/09/29 03:14:08;;;;;;;3.97;3.30;;;;;;;19.48;54.71;98957.84;6891552;28;20358;-86
2023/09/29 03:17:31;;;;;;;4.13;3.30;;;;;;;19.40;54.88;98966.50;6891286;28;20209;-85
2023/09/29 03:20:52;;;;;;;5.17;3.33;;;;;;;19.42;54.53;98969.81;6891368;28;20318;-86
2023/09/29 03:24:15;;;;;;;5.13;3.77;;;;;;;19.41;54.76;98950.91;6891389;28;20273;-86
2023/09/29 03:27:39;;;;;;;4.73;3.57;;;;;;;18.87;55.81;98960.13;6891793;28;20726;-85
2023/09/29 03:31:04;;;;;;;5.00;3.60;;;;;;;19.07;56.03;98947.53;6890713;28;20254;-86
2023/09/29 03:34:25;;;;;;;9.03;4.47;;;;;;;19.34;54.86;98953.03;6890905;28;20311;-86
2023/09/29 03:37:49;;;;;;;3.73;3.30;;;;;;;19.06;55.47;98959.53;6891576;28;20204;-86
2023/09/29 03:41:12;;;;;;;5.40;4.00;;;;;;;18.59;56.46;98920.16;6891557;28;20231;-86
2023/09/29 03:44:34;;;;;;;4.47;2.97;;;;;;;19.19;55.16;98940.00;6892454;28;20601;-85
2023/09/29 03:47:55;;;;;;;4.57;3.47;;;;;;;19.34;54.96;98953.03;6892074;28;20220;-86
2023/09/29 03:51:23;;;;;;;6.80;4.23;;;;;;;19.04;55.54;98955.41;6890240;28;20299;-85
2023/09/29 03:54:45;;;;;;;3.97;3.40;;;;;;;19.19;55.71;98952.84;6891022;28;20231;-86
2023/09/29 03:58:08;;;;;;;7.37;3.87;;;;;;;19.16;55.47;98943.22;6891511;28;20240;-86
2023/09/29 04:01:29;;;;;;;4.10;3.70;;;;;;;19.06;55.38;98948.59;6890615;28;20261;-86
2023/09/29 04:04:51;;;;;;;4.73;3.50;;;;;;;18.25;56.71;98929.47;6893295;28;20228;-86
2023/09/29 04:08:12;;;;;;;3.83;3.43;;;;;;;18.49;56.87;98957.41;6898246;28;20205;-86
2023/09/29 04:11:34;;;;;;;5.50;3.80;;;;;;;18.39;57.29;98969.00;6891217;28;20342;-86
2023/09/29 04:14:57;;;;;;;5.37;3.60;;;;;;;18.38;57.52;98966.53;6891760;28;20252;-86
2023/09/29 04:18:18;;;;;;;6.17;3.57;;;;;;;18.54;56.78;98943.81;6891410;28;20255;-86
2023/09/29 04:21:40;;;;;;;4.17;3.30;;;;;;;18.79;56.00;98976.94;6891322;28;20205;-86
2023/09/29 04:25:02;;;;;;;3.70;3.30;;;;;;;18.08;57.08;98908.72;6893226;28;20263;-86
2023/09/29 04:28:23;;;;;;;4.93;3.90;;;;;;;18.02;58.35;98969.75;6897375;28;20204;-85
2023/09/29 04:31:46;;;;;;;5.37;3.80;;;;;;;18.63;57.22;98975.09;6896539;28;20318;-86
2023/09/29 04:35:08;;;;;;;4.10;3.63;;;;;;;18.31;56.29;98897.59;6897173;28;20263;-86
2023/09/29 04:38:30;;;;;;;5.53;4.07;;;;;;;18.77;56.18;98976.38;6894141;28;20339;-85
2023/09/29 04:41:51;;;;;;;5.13;3.63;;;;;;;18.72;56.14;99000.88;6889642;28;20750;-86
2023/09/29 04:45:13;;;;;;;3.40;3.10;;;;;;;18.83;56.10;99002.66;6889873;28;20265;-86
2023/09/29 04:48:36;;;;;;;5.93;3.60;;;;;;;18.49;55.49;98941.84;6889726;28;20327;-85
2023/09/29 04:51:58;;;;;;;4.67;3.77;;;;;;;17.86;57.22;98955.03;6889607;28;20262;-86
2023/09/29 04:55:19;;;;;;;4.57;3.70;;;;;;;17.98;57.87;98993.19;6890449;28;20280;-86
2023/09/29 04:58:41;;;;;;;5.70;3.90;;;;;;;18.29;57.84;99045.25;6890952;28;20327;-85
2023/09/29 05:02:03;;;;;;;5.27;4.40;;;;;;;17.31;58.19;98901.44;6892001;28;20247;-85
2023/09/29 05:05:26;;;;;;;4.40;4.00;;;;;;;18.49;57.42;99018.31;6899127;28;20296;-86
2023/09/29 05:08:47;;;;;;;5.77;3.70;;;;;;;18.68;56.30;99024.31;6896862;28;20244;-86
2023/09/29 05:12:09;;;;;;;5.33;3.53;;;;;;;18.65;56.46;99016.63;6896002;28;20232;-86
2023/09/29 05:15:32;;;;;;;5.67;3.83;;;;;;;18.70;55.73;99012.06;6903009;28;20232;-86
2023/09/29 05:18:54;;;;;;;5.47;3.63;;;;;;;18.55;55.98;99016.47;6917555;28;20263;-86
2023/09/29 05:22:17;;;;;;;5.97;3.57;;;;;;;18.51;56.55;99010.69;6911931;28;20207;-85
2023/09/29 05:25:39;;;;;;;6.90;3.97;;;;;;;18.45;57.35;99013.59;6895099;28;20219;-85
2023/09/29 05:29:01;;;;;;;3.90;3.47;;;;;;;18.66;57.15;99019.13;6894937;28;20231;-85
2023/09/29 05:32:23;;;;;;;4.43;3.83;;;;;;;18.88;57.10;99032.81;6894594;28;20349;-85
2023/09/29 05:35:45;;;;;;;7.33;4.10;;;;;;;19.15;56.24;99017.28;6894669;28;20586;-86
2023/09/29 05:39:09;;;;;;;5.80;3.63;;;;;;;18.82;55.77;98960.03;6893560;28;20575;-86
2023/09/29 05:42:31;;;;;;;5.57;3.50;;;;;;;18.68;55.60;98942.34;6893915;28;20224;-85
2023/09/29 05:45:52;;;;;;;5.33;3.80;;;;;;;19.32;55.24;99027.13;6894374;28;20343;-86
2023/09/29 05:49:14;;;;;;;6.53;3.70;;;;;;;19.38;55.56;99026.09;6894038;28;20305;-87
2023/09/29 05:52:36;;;;;;;4.80;4.07;;;;;;;19.32;55.29;98994.31;6892184;28;20292;-86
2023/09/29 05:56:06;;;;;;;5.87;3.80;;;;;;;19.62;55.13;99023.88;6896767;28;20210;-84
2023/09/29 05:59:27;;;;;;;7.23;3.90;;;;;;;19.67;54.85;99041.19;6899195;28;20737;-85
2023/09/29 06:02:49;;;;;;;4.73;4.10;;;;;;;19.24;56.00;99021.28;6897162;28;20255;-85
2023/09/29 06:06:10;;;;;;;4.83;4.10;;;;;;;19.85;54.72;99023.56;6896794;28;20255;-87
2023/09/29 06:09:32;;;;;;;5.13;3.80;;;;;;;20.35;53.68;99027.59;6897017;28;20213;-86
2023/09/29 06:12:55;;;;;;;5.23;3.93;;;;;;;20.29;53.99;99042.34;6897110;28;20268;-85
2023/09/29 06:16:16;;;;;;;3.70;3.40;;;;;;;19.48;55.28;99017.16;6898132;28;20216;-87
2023/09/29 06:19:38;;;;;;;3.80;3.40;;;;;;;19.75;55.19;99018.81;6900914;28;20221;-85
2023/09/29 06:22:59;;;;;;;6.90;3.73;;;;;;;20.29;53.90;99042.34;6911240;28;20251;-84
2023/09/29 06:26:21;;;;;;;3.87;3.47;;;;;;;20.36;53.83;99050.34;6906549;28;20200;-84
2023/09/29 06:29:46;;;;;;;5.07;4.40;;;;;;;21.43;52.91;99044.16;6886720;28;20223;-84
2023/09/29 06:33:08;;;;;;;6.17;3.47;;;;;;;22.44;48.52;99052.38;6917790;28;20244;-85
2023/09/29 06:36:29;;;;;;;5.50;3.57;;;;;;;22.33;48.95;99047.09;6910414;28;20680;-85
2023/09/29 06:39:51;;;;;;;5.00;3.27;;;;;;;22.19;48.76;99043.25;6903008;28;20273;-84
2023/09/29 06:43:13;;;;;;;3.77;3.37;;;;;;;22.17;48.30;99057.25;6902832;28;20707;-85
2023/09/29 06:46:36;;;;;;;7.73;4.83;;;;;;;22.09;48.52;98991.91;6905323;28;20206;-85
2023/09/29 06:49:57;;;;;;;6.30;4.87;;;;;;;22.83;47.74;99050.66;6899931;28;20210;-85
2023/09/29 06:53:19;;;;;;;8.20;4.23;;;;;;;22.74;47.34;99030.34;6905624;28;20284;-84
2023/09/29 06:56:41;;;;;;;10.07;3.80;;;;;;;22.88;46.72;99014.06;6896811;28;20696;-85
2023/09/29 07:00:05;;;;;;;8.57;5.40;;;;;;;23.14;46.71;99052.22;6899825;28;20261;-85
2023/09/29 07:03:30;;;;;;;7.47;4.40;;;;;;;23.41;46.34;99051.88;6903818;28;20209;-86
2023/09/29 07:06:51;;;;;;;8.27;4.20;;;;;;;23.64;45.72;99054.81;6919609;28;20253;-86
2023/09/29 07:10:13;;;;;;;6.07;3.80;;;;;;;23.76;47.65;99052.53;6923378;28;20180;-86
2023/09/29 07:13:34;;;;;;;6.67;4.10;;;;;;;24.22;45.81;99053.91;6903349;28;20248;-85
2023/09/29 07:16:56;;;;;;;5.20;3.70;;;;;;;24.01;45.32;99057.09;6891808;28;20227;-85
2023/09/29 07:20:19;;;;;;;5.07;3.30;;;;;;;24.20;44.58;99050.59;6889511;28;20336;-85
2023/09/29 07:23:40;;;;;;;5.03;3.50;;;;;;;24.26;44.49;99038.44;6888377;28;20257;-85
2023/09/29 07:27:04;;;;;;;4.40;3.27;;;;;;;24.53;44.17;99047.03;6888245;28;20228;-85
2023/09/29 07:30:25;;;;;;;4.37;3.83;;;;;;;24.54;43.92;99025.81;6889194;28;20709;-85
2023/09/29 07:33:47;;;;;;;6.37;3.40;;;;;;;24.73;43.91;99041.34;6889413;28;20242;-85
2023/09/29 07:37:11;;;;;;;5.57;3.67;;;;;;;24.96;43.25;99037.00;6889795;28;20207;-85
2023/09/29 07:40:33;;;;;;;4.67;3.47;;;;;;;25.07;43.62;99030.28;6890530;28;20215;-85
2023/09/29 07:43:54;;;;;;;3.77;3.30;;;;;;;25.16;43.20;99040.38;6890551;28;20365;-86
2023/09/29 07:47:16;;;;;;;6.43;3.57;;;;;;;25.43;42.40;99043.38;6910042;28;20227;-85
2023/09/29 07:50:37;;;;;;;5.03;3.33;;;;;;;25.39;41.81;99044.25;6896976;28;20581;-85
2023/09/29 07:54:01;;;;;;;5.03;3.70;;;;;;;25.81;41.05;99030.44;6892888;28;20259;-85
2023/09/29 07:57:23;;;;;;;4.53;3.63;;;;;;;25.16;39.83;98962.25;6891018;28;20211;-84
2023/09/29 08:00:44;;;;;;;4.47;3.47;;;;;;;25.52;39.84;99030.56;6888374;28;20334;-84
2023/09/29 08:04:06;;;;;;;6.73;3.53;;;;;;;25.62;39.55;99049.75;6891300;28;20725;-85
2023/09/29 08:07:28;;;;;;;3.90;3.50;;;;;;;25.29;38.69;99047.97;6893206;28;20628;-84
2023/09/29 08:10:51;;;;;;;4.13;3.50;;;;;;;25.20;38.71;99057.97;6892150;28;20203;-85
2023/09/29 08:14:13;;;;;;;3.70;3.27;;;;;;;26.01;38.87;99055.06;6890858;28;20259;-85
2023/09/29 08:17:34;;;;;;;3.37;3.07;;;;;;;26.33;38.22;99039.34;6891751;28;20214;-84
2023/09/29 08:20:56;;;;;;;4.17;3.10;;;;;;;26.08;38.17;99056.28;6896607;28;20321;-84
2023/09/29 08:24:17;;;;;;;5.03;3.33;;;;;;;25.93;37.84;99059.31;6919675;28;20258;-84
2023/09/29 08:27:40;;;;;;;4.53;3.63;;;;;;;26.64;37.36;99034.97;6905205;28;20303;-84
2023/09/29 08:31:03;;;;;;;4.17;3.20;;;;;;;27.22;35.38;99055.47;6890971;28;20282;-85
2023/09/29 08:34:25;;;;;;;5.57;3.53;;;;;;;27.76;35.08;99054.63;6890783;28;20232;-85
2023/09/29 08:37:47;;;;;;;3.23;2.93;;;;;;;27.45;34.67;98992.69;6889745;28;20686;-85
2023/09/29 08:41:09;;;;;;;4.80;3.40;;;;;;;27.11;35.37;99045.69;6895991;28;20208;-85
2023/09/29 08:44:33;;;;;;;4.77;3.60;;;;;;;27.83;34.89;99044.78;6902258;28;20815;-85
2023/09/29 08:47:57;;;;;;;3.70;3.40;;;;;;;28.12;33.60;99030.53;6890631;28;20292;-84
2023/09/29 08:51:19;;;;;;;3.70;3.10;;;;;;;28.00;33.63;98969.28;6891211;28;20209;-85
2023/09/29 08:54:41;;;;;;;4.87;3.30;;;;;;;28.46;32.77;98967.88;6890624;28;20712;-84
2023/09/29 08:58:03;;;;;;;5.20;3.20;;;;;;;28.82;32.31;99006.56;6895481;28;20223;-84
2023/09/29 09:01:26;;;;;;;3.67;3.10;;;;;;;28.61;31.75;98917.50;6890850;28;20287;-85
2023/09/29 09:04:48;;;;;;;4.00;3.60;;;;;;;29.78;32.07;99034.13;6889668;28;20269;-84
2023/09/29 09:08:09;;;;;;;4.00;3.40;;;;;;;29.66;32.02;98977.53;6891041;28;20242;-84
2023/09/29 09:11:41;;;;;;;3.80;3.47;;;;;;;29.53;31.59;99029.31;6892213;28;20245;-86
2023/09/29 09:15:04;;;;;;;3.40;3.10;;;;;;;29.29;32.79;99015.00;6889069;28;20558;-84
2023/09/29 09:18:28;;;;;;;3.57;3.13;;;;;;;29.58;32.11;99018.06;6891167;28;20680;-83
2023/09/29 09:21:49;;;;;;;3.63;3.30;;;;;;;29.24;32.75;99025.44;6894612;28;20202;-83
2023/09/29 09:25:12;;;;;;;5.63;3.33;;;;;;;29.82;32.11;99009.25;6894758;28;20770;-84
2023/09/29 09:28:34;;;;;;;3.20;2.90;;;;;;;30.50;30.91;99007.34;6889451;28;20213;-85
2023/09/29 09:31:59;;;;;;;3.80;3.30;;;;;;;30.78;30.72;99010.59;6896303;28;20203;-85
2023/09/29 09:35:28;;;;;;;3.67;3.30;;;;;;;31.07;30.11;99003.09;6889227;28;20235;-84
2023/09/29 09:38:50;;;;;;;3.97;3.17;;;;;;;31.39;28.92;98948.72;6884585;28;20576;-89
2023/09/29 09:42:12;;;;;;;4.77;3.40;;;;;;;31.43;29.76;99003.44;6889177;28;20561;-84
2023/09/29 09:45:37;;;;;;;4.87;3.20;;;;;;;31.63;29.28;98946.94;6888208;28;20258;-86
2023/09/29 09:49:08;;;;;;;3.50;2.90;;;;;;;32.56;28.31;99001.19;6888588;28;20229;-86
2023/09/29 09:52:31;;;;;;;4.07;2.87;;;;;;;32.33;28.17;98990.72;6893287;28;20290;-85
2023/09/29 09:55:56;;;;;;;5.73;3.37;;;;;;;32.90;27.56;99000.03;6876294;28;20587;-88
2023/09/29 09:59:19;;;;;;;3.50;3.20;;;;;;;32.78;27.94;98994.41;6893200;28;20678;-86
2023/09/29 10:02:44;;;;;;;4.97;3.63;;;;;;;31.69;30.77;98958.69;6898631;28;20254;-87
2023/09/29 10:06:09;;;;;;;4.90;2.90;;;;;;;31.33;30.66;98995.50;6897060;28;20207;-87
2023/09/29 10:09:43;;;;;;;6.93;3.03;;;;;;;31.35;30.61;98895.63;6900710;28;20210;-88
2023/09/29 10:13:07;;;;;;;5.23;3.00;;;;;;;31.31;30.85;98928.09;6904775;28;20233;-87
2023/09/29 10:16:28;;;;;;;3.40;3.10;;;;;;;31.48;29.68;98994.09;6891807;28;20231;-87
2023/09/29 10:19:54;;;;;;;4.27;3.20;;;;;;;31.70;30.16;98890.59;6891360;28;20282;-88
2023/09/29 10:23:16;;;;;;;3.37;3.07;;;;;;;31.46;30.18;98988.84;6864389;28;20223;-87
2023/09/29 10:26:46;;;;;;;3.83;3.03;;;;;;;31.65;30.38;98986.44;6865686;28;20348;-86
2023/09/29 10:30:16;;;;;;;5.40;3.33;;;;;;;32.04;29.97;98983.25;6865024;28;20297;-85
2023/09/29 10:33:52;;;;;;;4.50;3.10;;;;;;;31.69;29.45;98990.19;6864965;28;20242;-86
2023/09/29 10:37:14;;;;;;;4.97;3.27;;;;;;;31.57;30.21;98992.06;6877702;28;20640;-86
2023/09/29 10:40:36;;;;;;;3.57;3.00;;;;;;;31.90;29.99;98976.28;6892172;28;20263;-86
2023/09/29 10:44:00;;;;;;;5.17;3.33;;;;;;;31.72;30.49;98995.09;6891786;28;20228;-85
2023/09/29 10:47:31;;;;;;;4.20;2.80;;;;;;;32.47;29.20;98985.66;6892555;28;20274;-85
2023/09/29 10:50:52;;;;;;;4.00;3.07;;;;;;;32.47;29.02;98977.28;6894816;28;20206;-83
2023/09/29 10:54:14;;;;;;;3.43;3.13;;;;;;;32.63;29.18;98969.88;6892960;28;20290;-82
2023/09/29 10:57:36;;;;;;;7.00;3.53;;;;;;;32.89;29.45;98968.47;6896135;28;20219;-83
2023/09/29 11:00:58;;;;;;;5.47;3.07;;;;;;;32.02;29.50;98915.78;6894573;28;20301;-84
2023/09/29 11:04:20;;;;;;;3.50;3.20;;;;;;;32.97;29.72;98969.53;6894936;28;20323;-87
2023/09/29 11:07:50;;;;;;;4.70;3.30;;;;;;;33.38;27.91;98960.97;6895266;28;20357;-87
2023/09/29 11:11:12;;;;;;;5.07;3.20;;;;;;;33.80;27.57;98956.72;6891345;28;20240;-87
2023/09/29 11:14:37;;;;;;;2.90;2.70;;;;;;;33.84;28.14;98957.66;6892066;28;20282;-89
2023/09/29 11:18:01;;;;;;;4.93;3.07;;;;;;;34.58;27.09;98952.25;6913256;28;20683;-88
2023/09/29 11:21:33;;;;;;;3.80;3.30;;;;;;;34.72;27.19;98947.84;6916675;28;20269;-88
2023/09/29 11:24:55;;;;;;;5.00;3.27;;;;;;;34.29;27.38;98941.41;6912804;28;20247;-86
2023/09/29 11:28:16;;;;;;;7.63;3.40;;;;;;;35.12;25.86;98945.72;6897388;28;20196;-87
2023/09/29 11:31:38;;;;;;;3.70;3.00;;;;;;;33.91;27.27;98840.34;6892198;28;20291;-86
2023/09/29 11:35:02;;;;;;;3.40;3.03;;;;;;;34.07;26.95;98934.38;6892836;28;20252;-86
2023/09/29 11:38:24;;;;;;;5.23;2.90;;;;;;;33.87;27.19;98875.78;6893075;28;20577;-86
2023/09/29 11:41:45;;;;;;;3.40;3.10;;;;;;;33.18;28.32;98850.03;6893100;28;20245;-86
2023/09/29 11:45:09;;;;;;;4.17;3.10;;;;;;;33.24;29.34;98926.91;6893440;28;20235;-86
2023/09/29 11:48:30;;;;;;;4.83;2.80;;;;;;;33.35;29.05;98916.91;6893031;28;20338;-86
2023/09/29 11:51:54;;;;;;;4.17;3.00;;;;;;;33.30;28.59;98881.63;6892265;28;20212;-87
2023/09/29 11:55:15;;;;;;;5.03;3.20;;;;;;;33.87;28.33;98932.59;6893743;28;20232;-86
2023/09/29 11:58:37;;;;;;;4.63;3.03;;;;;;;33.57;28.37;98902.44;6900948;28;20227;-88
2023/09/29 12:01:59;;;;;;;7.10;3.10;;;;;;;32.80;29.07;98830.06;6926556;28;20206;-87
2023/09/29 12:05:21;;;;;;;3.10;2.80;;;;;;;34.42;27.68;98913.00;6947429;28;20283;-86
2023/09/29 12:08:44;;;;;;;4.20;3.30;;;;;;;34.61;27.13;98907.53;6913820;28;20208;-86
2023/09/29 12:12:06;;;;;;;4.10;2.90;;;;;;;33.69;28.85;98919.19;6890962;28;20232;-86
2023/09/29 12:15:27;;;;;;;4.87;3.10;;;;;;;33.06;29.49;98859.28;6891053;28;20236;-86
2023/09/29 12:18:49;;;;;;;3.83;2.90;;;;;;;33.31;29.45;98899.22;6910310;28;20273;-86
2023/09/29 12:22:11;;;;;;;5.67;3.00;;;;;;;33.03;29.24;98876.75;6917816;28;20239;-86
2023/09/29 12:25:35;;;;;;;5.00;3.47;;;;;;;33.02;29.97;98893.84;6917505;28;20239;-86
2023/09/29 12:28:56;;;;;;;5.70;3.13;;;;;;;33.02;30.26;98847.16;6917409;28;20276;-86
2023/09/29 12:32:18;;;;;;;4.07;2.97;;;;;;;34.10;28.53;98888.88;6916330;28;20294;-85
2023/09/29 12:35:39;;;;;;;4.57;2.90;;;;;;;34.21;28.22;98887.22;6916925;28;20323;-86
2023/09/29 12:39:01;;;;;;;6.97;3.17;;;;;;;33.40;28.80;98883.94;6917412;28;20649;-86
2023/09/29 12:42:25;;;;;;;4.50;2.83;;;;;;;33.72;28.03;98899.72;6916754;28;20226;-86
2023/09/29 12:45:47;;;;;;;3.13;2.90;;;;;;;34.09;27.83;98889.25;6917145;28;20671;-87
2023/09/29 12:49:08;;;;;;;5.80;2.93;;;;;;;33.92;27.45;98845.59;6917539;28;20347;-87
2023/09/29 12:52:30;;;;;;;3.13;2.60;;;;;;;34.22;27.04;98877.63;6916812;28;20359;-86
2023/09/29 12:55:51;;;;;;;4.37;2.80;;;;;;;34.28;27.49;98884.63;6917029;28;20235;-86
2023/09/29 12:59:15;;;;;;;4.83;3.00;;;;;;;34.45;27.44;98889.91;6901032;28;20303;-87
2023/09/29 13:02:36;;;;;;;3.67;2.83;;;;;;;34.01;27.90;98823.84;6889752;28;20696;-85
2023/09/29 13:06:00;;;;;;;3.63;2.60;;;;;;;34.37;27.07;98879.66;6889446;28;20667;-86
2023/09/29 13:09:21;;;;;;;5.03;2.90;;;;;;;34.62;27.04;98872.75;6888387;28;20668;-85
2023/09/29 13:12:44;;;;;;;4.27;3.10;;;;;;;34.31;27.54;98880.31;6888430;28;20258;-85
2023/09/29 13:16:09;;;;;;;3.70;2.80;;;;;;;34.45;27.71;98883.47;6889327;28;20691;-85
2023/09/29 13:19:31;;;;;;;5.50;3.00;;;;;;;34.11;28.33;98862.53;6888751;28;20240;-86
2023/09/29 13:22:52;;;;;;;4.57;2.63;;;;;;;34.26;27.86;98870.16;6888316;28;20714;-85
2023/09/29 13:26:14;;;;;;;3.00;2.80;;;;;;;33.88;28.40;98883.84;6893135;28;20205;-86
2023/09/29 13:29:36;;;;;;;4.00;3.10;;;;;;;33.64;28.11;98827.97;6893697;28;20197;-84
2023/09/29 13:32:59;;;;;;;2.90;2.40;;;;;;;33.66;28.42;98850.78;6893864;28;20264;-85
2023/09/29 13:36:20;;;;;;;3.83;2.40;;;;;;;32.96;28.86;98862.53;6882397;28;20223;-85
2023/09/29 13:39:42;;;;;;;3.40;2.40;;;;;;;32.94;28.57;98866.84;6892336;28;20290;-84
2023/09/29 13:43:04;;;;;;;3.90;2.93;;;;;;;32.92;29.23;98883.97;6893495;28;20373;-85
2023/09/29 13:46:26;;;;;;;5.87;2.80;;;;;;;33.09;28.62;98888.50;6893784;28;20591;-85
2023/09/29 13:49:49;;;;;;;5.93;2.80;;;;;;;32.85;29.57;98892.09;6893766;28;20222;-85
2023/09/29 13:53:10;;;;;;;2.77;2.20;;;;;;;33.30;28.44;98878.84;6892976;28;20231;-84
2023/09/29 13:56:32;;;;;;;2.87;2.67;;;;;;;33.46;27.80;98874.16;6920859;28;20771;-85
2023/09/29 13:59:54;;;;;;;5.47;3.00;;;;;;;33.23;29.95;98891.72;6899173;28;20589;-85
2023/09/29 14:03:15;;;;;;;8.10;3.23;;;;;;;33.75;29.51;98890.63;6892719;28;20358;-84
2023/09/29 14:06:38;;;;;;;3.53;3.23;;;;;;;33.07;30.57;98891.63;6893478;28;20701;-84
2023/09/29 14:09:59;;;;;;;5.00;3.00;;;;;;;32.96;30.61;98893.25;6894024;28;20750;-85
2023/09/29 14:13:22;;;;;;;5.50;2.80;;;;;;;32.06;32.09;98902.78;6892968;28;20289;-84
2023/09/29 14:16:44;;;;;;;4.03;3.00;;;;;;;32.00;32.27;98901.38;6893384;28;20326;-84
2023/09/29 14:20:08;;;;;;;3.43;2.53;;;;;;;31.85;32.07;98901.97;6892553;28;20210;-86
2023/09/29 14:23:31;;;;;;;3.60;2.80;;;;;;;31.22;32.87;98887.53;6892312;28;20555;-84
2023/09/29 14:26:52;;;;;;;5.53;3.37;;;;;;;31.75;32.31;98863.38;6892471;28;20257;-84
2023/09/29 14:30:14;;;;;;;3.27;2.60;;;;;;;32.08;31.63;98902.44;6892377;28;20202;-85
2023/09/29 14:33:36;;;;;;;5.83;2.57;;;;;;;31.44;32.77;98851.78;6891726;28;20355;-84
2023/09/29 14:36:57;;;;;;;8.93;3.07;;;;;;;31.84;32.08;98905.94;6891667;28;20232;-85
2023/09/29 14:40:20;;;;;;;3.67;3.00;;;;;;;30.76;33.33;98871.69;6892405;28;20333;-85
2023/09/29 14:43:44;;;;;;;4.90;2.90;;;;;;;31.40;32.76;98909.38;6892277;28;20237;-84
2023/09/29 14:47:05;;;;;;;3.33;3.03;;;;;;;31.38;33.06;98919.22;6892492;28;20803;-85
2023/09/29 14:50:27;;;;;;;7.23;3.17;;;;;;;31.00;34.00;98923.97;6892380;28;20246;-85
2023/09/29 14:53:49;;;;;;;6.50;3.43;;;;;;;30.30;35.86;98940.44;6891847;28;20368;-84
2023/09/29 14:57:14;;;;;;;4.90;3.10;;;;;;;30.19;36.73;98950.25;6892258;28;20229;-84
2023/09/29 15:00:36;;;;;;;5.37;3.20;;;;;;;30.19;37.43;98936.34;6891606;28;20284;-85
2023/09/29 15:03:58;;;;;;;3.37;2.87;;;;;;;30.10;37.86;98944.69;6891879;28;20235;-84
2023/09/29 15:07:20;;;;;;;5.43;2.77;;;;;;;29.55;39.41;98935.31;6892780;28;20361;-84
2023/09/29 15:10:42;;;;;;;9.27;3.10;;;;;;;29.73;39.70;98966.75;6892110;28;20284;-84
2023/09/29 15:14:05;;;;;;;4.50;3.37;;;;;;;29.45;39.42;98899.50;6891885;28;20248;-84
2023/09/29 15:17:28;;;;;;;5.93;3.17;;;;;;;29.56;40.30;98980.63;6892414;28;20204;-84
2023/09/29 15:20:49;;;;;;;3.40;2.83;;;;;;;29.17;40.87;98969.53;6892436;28;20318;-84
2023/09/29 15:24:11;;;;;;;7.57;3.17;;;;;;;28.73;41.73;98958.53;6891647;28;20301;-84
2023/09/29 15:27:32;;;;;;;4.30;3.23;;;;;;;28.88;41.55;99005.31;6894305;28;20246;-84
2023/09/29 15:30:55;;;;;;;5.13;3.30;;;;;;;28.66;42.51;99027.56;6895534;28;20353;-84
2023/09/29 15:34:17;;;;;;;8.77;3.33;;;;;;;28.55;42.81;99040.84;6890357;28;20590;-83
2023/09/29 15:37:39;;;;;;;7.47;3.77;;;;;;;28.00;43.05;98995.06;6891867;28;20298;-85
2023/09/29 15:41:00;;;;;;;5.57;3.87;;;;;;;27.79;44.11;99062.34;6890044;28;20571;-85
2023/09/29 15:44:22;;;;;;;7.93;4.30;;;;;;;28.42;42.63;99063.94;6892804;28;20246;-84
2023/09/29 15:47:45;;;;;;;6.80;3.73;;;;;;;27.89;43.17;99076.81;6893171;28;20231;-85
2023/09/29 15:51:06;;;;;;;6.10;3.97;;;;;;;27.48;43.47;99001.19;6891113;28;20235;-85
2023/09/29 15:54:28;;;;;;;7.53;4.67;;;;;;;27.60;43.94;99069.94;6890928;28;20256;-84